Time;durP1;ratioP1;P1;durP2;ratioP2;P2;SDS_P1;SDS_P2;PMS_P1;PMS_P2;Temp;Humidity;BMP_temperature;BMP_pressure;BME280_temperature;BME280_humidity;BME280_pressure;Samples;Min_cycle;Max_cycle;Signal;HPM_P1;HPM_P2
2022/01/07 00:01:32;;;;;;;18.38;5.72;;;2.70;99.90;;;;;;5074170;28;20052;-79
2022/01/07 00:03:58;;;;;;;23.45;6.57;;;2.70;99.90;;;;;;5074010;28;20131;-82
2022/01/07 00:06:23;;;;;;;21.17;6.57;;;2.70;99.90;;;;;;5073759;28;20128;-79
2022/01/07 00:08:49;;;;;;;17.83;6.53;;;2.70;99.90;;;;;;5073563;28;20071;-79
2022/01/07 00:11:15;;;;;;;15.13;5.57;;;2.70;99.90;;;;;;5055488;28;20040;-80
2022/01/07 00:13:41;;;;;;;17.42;6.45;;;2.70;99.90;;;;;;5073963;28;20543;-78
2022/01/07 00:16:08;;;;;;;26.85;6.38;;;2.70;99.90;;;;;;5073574;28;20453;-77
2022/01/07 00:18:34;;;;;;;16.73;5.30;;;2.70;99.90;;;;;;5039257;28;20044;-80
2022/01/07 00:21:00;;;;;;;18.08;5.30;;;2.70;99.90;;;;;;5073216;28;20055;-79
2022/01/07 00:23:25;;;;;;;15.60;5.30;;;2.70;99.90;;;;;;5073440;28;20036;-80
2022/01/07 00:25:51;;;;;;;15.63;5.13;;;2.70;99.90;;;;;;5073572;28;20055;-80
2022/01/07 00:28:19;;;;;;;20.10;5.28;;;2.70;99.90;;;;;;5073430;28;20044;-79
2022/01/07 00:30:45;;;;;;;16.60;5.47;;;3.50;99.90;;;;;;5055791;28;20052;-79
2022/01/07 00:33:11;;;;;;;19.33;5.88;;;2.80;99.90;;;;;;5073300;28;20040;-79
2022/01/07 00:35:37;;;;;;;17.40;5.40;;;3.50;99.90;;;;;;5076176;28;20177;-82
2022/01/07 00:38:04;;;;;;;16.45;5.55;;;2.80;99.90;;;;;;5068322;28;20068;-79
2022/01/07 00:40:29;;;;;;;14.95;5.47;;;2.80;99.90;;;;;;5085748;28;20049;-81
2022/01/07 00:42:55;;;;;;;12.93;4.57;;;2.80;99.90;;;;;;5080867;28;20048;-79
2022/01/07 00:45:22;;;;;;;12.60;4.25;;;2.80;99.90;;;;;;5073519;28;20083;-78
2022/01/07 00:47:48;;;;;;;14.38;4.93;;;2.80;99.90;;;;;;5073006;28;20482;-77
2022/01/07 00:50:16;;;;;;;13.30;4.50;;;2.80;99.90;;;;;;5073128;28;20047;-78
2022/01/07 00:52:42;;;;;;;13.25;4.47;;;2.80;99.90;;;;;;5055005;28;20088;-81
2022/01/07 00:55:09;;;;;;;11.15;4.38;;;2.80;99.90;;;;;;5054879;28;20131;-79
2022/01/07 00:57:35;;;;;;;22.33;5.28;;;2.80;99.90;;;;;;5055038;28;20033;-78
2022/01/07 01:00:02;;;;;;;16.15;5.07;;;2.80;99.90;;;;;;5072966;28;20604;-81
2022/01/07 01:02:27;;;;;;;14.90;4.57;;;2.80;99.90;;;;;;5054908;28;20052;-78
2022/01/07 01:04:53;;;;;;;17.40;4.25;;;2.80;99.90;;;;;;5055289;28;20048;-80
2022/01/07 01:07:19;;;;;;;11.55;4.28;;;2.80;99.90;;;;;;5072819;28;20070;-79
2022/01/07 01:09:44;;;;;;;11.50;3.75;;;2.80;99.90;;;;;;5072854;28;20047;-78
2022/01/07 01:12:11;;;;;;;14.15;3.83;;;2.80;99.90;;;;;;5071648;28;20127;-80
2022/01/07 01:14:37;;;;;;;15.88;5.03;;;2.80;99.90;;;;;;5072694;28;20090;-79
2022/01/07 01:17:03;;;;;;;12.13;3.95;;;2.80;99.90;;;;;;5072690;28;20053;-77
2022/01/07 01:19:29;;;;;;;14.27;4.07;;;2.70;99.90;;;;;;5072714;28;20040;-78
2022/01/07 01:21:55;;;;;;;13.77;4.53;;;2.70;99.90;;;;;;5072576;28;20048;-76
2022/01/07 01:24:21;;;;;;;12.40;4.28;;;3.30;99.90;;;;;;5054577;28;20056;-77
2022/01/07 01:26:47;;;;;;;18.58;4.05;;;2.60;99.90;;;;;;5054731;28;20060;-78
2022/01/07 01:29:14;;;;;;;13.82;4.25;;;2.50;99.90;;;;;;5054486;28;20049;-78
2022/01/07 01:31:43;;;;;;;12.70;4.57;;;2.40;99.90;;;;;;5072656;28;20052;-77
2022/01/07 01:34:08;;;;;;;10.82;4.00;;;3.50;99.90;;;;;;5072687;28;20104;-79
2022/01/07 01:36:34;;;;;;;9.23;3.92;;;3.10;99.90;;;;;;5072305;28;20124;-79
2022/01/07 01:39:00;;;;;;;10.90;3.95;;;2.30;99.90;;;;;;5072155;28;20044;-78
2022/01/07 01:41:26;;;;;;;17.38;4.88;;;2.30;99.90;;;;;;5072747;28;20417;-80
2022/01/07 01:43:53;;;;;;;11.88;4.55;;;2.30;99.90;;;;;;5072130;28;20040;-82
2022/01/07 01:46:20;;;;;;;14.60;4.50;;;2.20;99.90;;;;;;5072245;28;20070;-82
2022/01/07 01:48:48;;;;;;;14.10;4.88;;;2.20;99.90;;;;;;5072618;28;20043;-80
2022/01/07 01:51:14;;;;;;;13.82;4.72;;;2.20;99.90;;;;;;5072669;28;20390;-82
2022/01/07 01:53:41;;;;;;;16.55;4.70;;;2.20;99.90;;;;;;5072750;28;20044;-82
2022/01/07 01:56:07;;;;;;;15.52;4.65;;;2.10;99.90;;;;;;5072702;28;20063;-78
2022/01/07 01:58:33;;;;;;;10.85;4.15;;;2.10;99.90;;;;;;5057575;28;20024;-80
2022/01/07 02:00:59;;;;;;;15.55;4.43;;;2.10;99.90;;;;;;5047579;28;20102;-80
2022/01/07 02:03:25;;;;;;;11.40;4.03;;;2.10;99.90;;;;;;5083330;28;20040;-79
2022/01/07 02:05:51;;;;;;;16.02;4.80;;;2.00;99.90;;;;;;5072847;28;20045;-77
2022/01/07 02:08:17;;;;;;;12.52;4.90;;;2.00;99.90;;;;;;5073204;28;20048;-77
2022/01/07 02:10:42;;;;;;;11.57;4.50;;;2.00;99.90;;;;;;5054138;28;20056;-77
2022/01/07 02:13:08;;;;;;;13.25;5.03;;;2.00;99.90;;;;;;5072002;28;20111;-76
2022/01/07 02:15:34;;;;;;;13.57;4.68;;;2.00;99.90;;;;;;5072377;28;20052;-77
2022/01/07 02:18:00;;;;;;;18.13;5.30;;;2.00;99.90;;;;;;5071734;28;20036;-77
2022/01/07 02:20:28;;;;;;;14.07;5.07;;;2.00;99.90;;;;;;5072094;28;20086;-79
2022/01/07 02:22:56;;;;;;;14.05;4.63;;;2.00;99.90;;;;;;5074068;28;20052;-77
2022/01/07 02:25:21;;;;;;;12.20;4.80;;;2.00;99.90;;;;;;5075615;28;20057;-77
2022/01/07 02:27:48;;;;;;;17.90;5.53;;;2.00;99.90;;;;;;5075399;28;20047;-78
2022/01/07 02:30:20;;;;;;;14.63;5.30;;;2.00;99.90;;;;;;5075814;28;20080;-77
2022/01/07 02:32:46;;;;;;;16.13;6.05;;;2.00;99.90;;;;;;5075715;28;20487;-77
2022/01/07 02:35:13;;;;;;;15.90;5.85;;;2.00;99.90;;;;;;5057815;28;20090;-77
2022/01/07 02:37:39;;;;;;;18.17;5.82;;;2.00;99.90;;;;;;5069176;28;20057;-77
2022/01/07 02:40:07;;;;;;;11.00;5.05;;;2.00;99.90;;;;;;5037492;28;20080;-78
2022/01/07 02:42:32;;;;;;;14.90;5.40;;;2.00;99.90;;;;;;5055027;28;20037;-78
2022/01/07 02:44:58;;;;;;;14.10;4.65;;;2.00;99.90;;;;;;5055575;28;20487;-77
2022/01/07 02:47:29;;;;;;;16.73;5.70;;;2.20;99.90;;;;;;5055258;28;20434;-77
2022/01/07 02:49:54;;;;;;;12.50;5.30;;;2.30;99.90;;;;;;5054150;28;20123;-78
2022/01/07 02:52:20;;;;;;;16.92;7.50;;;2.70;99.90;;;;;;5054885;28;20080;-78
2022/01/07 02:54:46;;;;;;;15.75;6.03;;;1.90;99.90;;;;;;5036866;28;20049;-77
2022/01/07 02:57:11;;;;;;;14.65;5.18;;;2.70;99.90;;;;;;5054910;28;20037;-78
2022/01/07 02:59:37;;;;;;;13.20;5.43;;;1.90;99.90;;;;;;5053974;28;20375;-79
2022/01/07 03:02:03;;;;;;;15.65;5.93;;;2.50;99.90;;;;;;5036897;28;20083;-79
2022/01/07 03:04:29;;;;;;;11.30;5.63;;;1.90;99.90;;;;;;5054988;28;20044;-79
2022/01/07 03:06:55;;;;;;;20.23;6.97;;;1.90;99.90;;;;;;5054791;28;20052;-79
2022/01/07 03:09:20;;;;;;;17.48;6.35;;;2.10;99.90;;;;;;5053759;28;20045;-76
2022/01/07 03:11:46;;;;;;;18.08;6.63;;;1.80;99.90;;;;;;5054817;28;20059;-78
2022/01/07 03:14:12;;;;;;;16.23;6.15;;;2.80;99.90;;;;;;5054021;28;20071;-75
2022/01/07 03:16:39;;;;;;;17.35;6.20;;;1.80;99.90;;;;;;5053188;28;20052;-79
2022/01/07 03:19:06;;;;;;;16.17;6.63;;;1.80;99.90;;;;;;5054937;28;20438;-79
2022/01/07 03:21:32;;;;;;;19.30;7.10;;;1.80;99.90;;;;;;5054599;28;20501;-78
2022/01/07 03:23:57;;;;;;;15.07;6.97;;;1.80;99.90;;;;;;5060907;28;20068;-76
2022/01/07 03:26:23;;;;;;;17.73;7.57;;;1.80;99.90;;;;;;5043776;28;20060;-78
2022/01/07 03:28:49;;;;;;;15.27;7.32;;;1.80;99.90;;;;;;5060364;28;20041;-78
2022/01/07 03:31:15;;;;;;;17.33;7.13;;;1.80;99.90;;;;;;5053258;28;20056;-77
2022/01/07 03:33:40;;;;;;;15.23;6.95;;;1.80;99.90;;;;;;5053473;28;20399;-77
2022/01/07 03:36:06;;;;;;;21.13;7.50;;;1.80;99.90;;;;;;5054585;28;20037;-77
2022/01/07 03:38:32;;;;;;;19.15;7.05;;;1.80;99.90;;;;;;5067565;28;20230;-77
2022/01/07 03:40:58;;;;;;;17.73;7.38;;;1.80;99.90;;;;;;5055989;28;20056;-77
2022/01/07 03:43:24;;;;;;;16.70;8.10;;;1.80;99.90;;;;;;5074078;28;20512;-78
2022/01/07 03:45:50;;;;;;;17.73;8.13;;;1.80;99.90;;;;;;5074332;28;20044;-78
2022/01/07 03:48:16;;;;;;;13.70;6.32;;;1.80;99.90;;;;;;5073970;28;20044;-83
2022/01/07 03:50:42;;;;;;;14.57;7.15;;;2.20;99.90;;;;;;5074108;28;20098;-80
2022/01/07 03:53:08;;;;;;;16.58;7.22;;;1.80;99.90;;;;;;5074083;28;20048;-82
2022/01/07 03:55:34;;;;;;;17.25;8.65;;;1.80;99.90;;;;;;5074040;28;20127;-75
2022/01/07 03:57:59;;;;;;;18.83;7.45;;;1.80;99.90;;;;;;5056474;28;20116;-77
2022/01/07 04:00:32;;;;;;;17.52;7.72;;;1.80;99.90;;;;;;5055610;28;20047;-76
2022/01/07 04:03:03;;;;;;;18.38;7.65;;;2.50;99.90;;;;;;5073781;28;20084;-78
2022/01/07 04:05:28;;;;;;;16.63;7.93;;;1.80;99.90;;;;;;5073823;28;20052;-77
2022/01/07 04:07:54;;;;;;;15.05;6.68;;;1.80;99.90;;;;;;5074014;28;20037;-77
2022/01/07 04:10:20;;;;;;;15.82;7.20;;;2.70;99.90;;;;;;5073888;28;20036;-78
2022/01/07 04:12:45;;;;;;;19.55;8.25;;;1.80;99.90;;;;;;5073692;28;20544;-78
2022/01/07 04:15:11;;;;;;;13.02;6.32;;;1.80;99.90;;;;;;5055985;28;20060;-78
2022/01/07 04:17:43;;;;;;;15.07;7.30;;;1.80;99.90;;;;;;5055451;28;20054;-78
2022/01/07 04:20:12;;;;;;;17.92;7.35;;;1.80;99.90;;;;;;5073766;28;20052;-83
2022/01/07 04:22:38;;;;;;;15.23;7.32;;;1.80;99.90;;;;;;5073587;28;20458;-82
2022/01/07 04:25:07;;;;;;;17.20;7.55;;;1.80;99.90;;;;;;5073652;28;20040;-83
2022/01/07 04:27:33;;;;;;;13.35;6.45;;;1.90;99.90;;;;;;5073141;28;20585;-83
2022/01/07 04:29:59;;;;;;;16.08;7.22;;;1.90;99.90;;;;;;5073244;28;20128;-78
2022/01/07 04:32:25;;;;;;;15.20;6.88;;;1.90;99.90;;;;;;5072604;28;20051;-77
2022/01/07 04:34:50;;;;;;;16.38;7.43;;;1.90;99.90;;;;;;5055088;28;20076;-77
2022/01/07 04:37:17;;;;;;;16.70;7.32;;;1.90;99.90;;;;;;5052299;28;20052;-79
2022/01/07 04:39:43;;;;;;;15.30;7.72;;;1.90;99.90;;;;;;5053139;28;20052;-78
2022/01/07 04:42:08;;;;;;;17.77;7.70;;;1.90;99.90;;;;;;5052974;28;20040;-78
2022/01/07 04:44:40;;;;;;;16.95;7.93;;;1.90;99.90;;;;;;5051308;28;20048;-81
2022/01/07 04:47:08;;;;;;;17.40;7.03;;;2.00;99.90;;;;;;5035073;28;20514;-81
2022/01/07 04:49:35;;;;;;;20.20;8.05;;;1.90;99.90;;;;;;5018660;28;20041;-76
2022/01/07 04:52:04;;;;;;;15.05;7.15;;;1.90;99.90;;;;;;5052849;28;20057;-78
2022/01/07 04:54:31;;;;;;;16.60;6.90;;;1.90;99.90;;;;;;5052996;28;20521;-76
2022/01/07 04:56:56;;;;;;;15.48;7.30;;;2.00;99.90;;;;;;5052572;28;20049;-76
2022/01/07 04:59:22;;;;;;;15.52;6.70;;;2.00;99.90;;;;;;5052875;28;20128;-77
2022/01/07 05:01:48;;;;;;;18.42;7.72;;;2.00;99.90;;;;;;5053226;28;20041;-77
2022/01/07 05:04:14;;;;;;;14.85;7.10;;;2.00;99.90;;;;;;5052831;28;20079;-79
2022/01/07 05:06:45;;;;;;;15.70;7.65;;;2.00;99.90;;;;;;5051569;28;20123;-77
2022/01/07 05:09:13;;;;;;;15.75;6.40;;;2.00;99.90;;;;;;5052896;28;20041;-77
2022/01/07 05:11:39;;;;;;;14.23;6.88;;;2.00;99.90;;;;;;5053282;28;20051;-77
2022/01/07 05:14:05;;;;;;;14.40;6.68;;;2.00;99.90;;;;;;5051796;28;20041;-77
2022/01/07 05:16:30;;;;;;;14.30;7.03;;;2.10;99.90;;;;;;5053250;28;20132;-77
2022/01/07 05:18:57;;;;;;;17.45;6.43;;;2.10;99.90;;;;;;5052928;28;20041;-77
2022/01/07 05:21:23;;;;;;;13.70;7.20;;;2.10;99.90;;;;;;5052642;28;20045;-78
2022/01/07 05:23:49;;;;;;;18.05;7.43;;;2.10;99.90;;;;;;5051120;28;20045;-79
2022/01/07 05:26:15;;;;;;;15.75;6.07;;;1.80;99.90;;;;;;5052303;28;20119;-76
2022/01/07 05:28:40;;;;;;;15.60;6.82;;;2.10;99.90;;;;;;5052111;28;20041;-77
2022/01/07 05:31:06;;;;;;;18.02;7.15;;;2.10;99.90;;;;;;5051038;28;20183;-77
2022/01/07 05:33:32;;;;;;;14.80;6.25;;;2.10;99.90;;;;;;5050144;28;20107;-78
2022/01/07 05:35:57;;;;;;;12.98;6.18;;;2.10;99.90;;;;;;5051452;28;20049;-83
2022/01/07 05:38:24;;;;;;;15.80;7.07;;;2.10;99.90;;;;;;5064469;28;20044;-85
2022/01/07 05:40:50;;;;;;;17.40;6.85;;;2.10;99.90;;;;;;5072410;28;20564;-80
2022/01/07 05:43:16;;;;;;;15.20;7.55;;;2.10;99.90;;;;;;5054618;28;20036;-84
2022/01/07 05:45:44;;;;;;;14.20;7.13;;;2.10;99.90;;;;;;5072627;28;20055;-85
2022/01/07 05:48:10;;;;;;;13.05;6.63;;;2.10;99.90;;;;;;5072886;28;20048;-84
2022/01/07 05:50:36;;;;;;;14.02;6.68;;;2.20;99.90;;;;;;5072723;28;20041;-83
2022/01/07 05:53:02;;;;;;;14.15;5.90;;;2.20;99.90;;;;;;5072251;28;20051;-81
2022/01/07 05:55:27;;;;;;;18.90;6.90;;;2.20;99.90;;;;;;5072817;28;20044;-83
2022/01/07 05:57:53;;;;;;;15.30;7.00;;;2.20;99.90;;;;;;5076262;28;20040;-78
2022/01/07 06:00:19;;;;;;;11.98;5.78;;;2.20;99.90;;;;;;5077040;28;20045;-85
2022/01/07 06:02:44;;;;;;;15.63;6.68;;;2.20;99.90;;;;;;5058717;28;20040;-83
2022/01/07 06:05:11;;;;;;;15.80;6.38;;;2.20;99.90;;;;;;5078785;28;20044;-81
2022/01/07 06:07:37;;;;;;;12.43;6.03;;;2.20;99.90;;;;;;5079529;28;20464;-77
2022/01/07 06:10:04;;;;;;;11.85;6.00;;;2.20;99.90;;;;;;5084611;28;20051;-78
2022/01/07 06:12:29;;;;;;;13.52;6.32;;;2.30;99.90;;;;;;5081570;28;20446;-77
2022/01/07 06:14:55;;;;;;;14.48;6.38;;;2.30;99.90;;;;;;5075850;28;20032;-77
2022/01/07 06:17:20;;;;;;;15.25;6.82;;;2.30;99.90;;;;;;5076040;28;20491;-78
2022/01/07 06:19:46;;;;;;;12.15;5.57;;;2.30;99.90;;;;;;5076042;28;20442;-78
2022/01/07 06:22:12;;;;;;;13.73;6.00;;;2.30;99.90;;;;;;5074959;28;20131;-77
2022/01/07 06:24:37;;;;;;;12.77;5.88;;;2.30;99.90;;;;;;5075802;28;20040;-78
2022/01/07 06:27:04;;;;;;;13.23;5.05;;;2.40;99.90;;;;;;5058183;28;20072;-77
2022/01/07 06:29:30;;;;;;;13.90;5.90;;;2.30;99.90;;;;;;5075533;28;20454;-77
2022/01/07 06:31:58;;;;;;;14.05;5.65;;;2.30;99.90;;;;;;5075689;28;20045;-80
2022/01/07 06:34:24;;;;;;;11.45;5.82;;;2.30;99.90;;;;;;5075492;28;20044;-80
2022/01/07 06:36:50;;;;;;;13.93;6.22;;;2.30;99.90;;;;;;5075286;28;20406;-80
2022/01/07 06:39:19;;;;;;;12.00;5.60;;;2.30;99.90;;;;;;5075172;28;20060;-78
2022/01/07 06:41:46;;;;;;;11.68;5.57;;;2.30;99.90;;;;;;5057281;28;20418;-79
2022/01/07 06:44:13;;;;;;;11.05;5.13;;;2.40;99.90;;;;;;5075158;28;20131;-78
2022/01/07 06:46:39;;;;;;;11.57;5.53;;;2.30;99.90;;;;;;5075320;28;20048;-79
2022/01/07 06:49:05;;;;;;;12.60;5.78;;;2.40;99.90;;;;;;5056894;28;20044;-79
2022/01/07 06:51:31;;;;;;;11.43;5.22;;;2.40;99.90;;;;;;5075002;28;20046;-80
2022/01/07 06:53:58;;;;;;;13.50;5.80;;;2.40;99.90;;;;;;5056966;28;20049;-78
2022/01/07 06:56:24;;;;;;;14.60;5.88;;;2.40;99.90;;;;;;5057053;28;20131;-80
2022/01/07 06:58:50;;;;;;;13.75;5.38;;;2.40;99.90;;;;;;5074808;28;20047;-79
2022/01/07 07:01:20;;;;;;;12.98;5.70;;;2.40;99.90;;;;;;5057346;28;20047;-77
2022/01/07 07:03:48;;;;;;;12.60;6.47;;;2.40;99.90;;;;;;5074872;28;20051;-79
2022/01/07 07:06:15;;;;;;;11.73;5.85;;;2.40;99.90;;;;;;5074794;28;20046;-78
2022/01/07 07:08:40;;;;;;;11.07;5.95;;;2.40;99.90;;;;;;5073053;28;20060;-78
2022/01/07 07:11:06;;;;;;;11.77;5.53;;;2.40;99.90;;;;;;5074492;28;20040;-77
2022/01/07 07:13:32;;;;;;;12.60;5.30;;;2.40;99.90;;;;;;5074538;28;20113;-78
2022/01/07 07:15:58;;;;;;;13.13;6.53;;;3.50;99.90;;;;;;5056899;28;20040;-78
2022/01/07 07:18:23;;;;;;;15.90;6.05;;;2.40;99.90;;;;;;5074303;28;20044;-78
2022/01/07 07:20:49;;;;;;;13.43;6.03;;;2.40;99.90;;;;;;5074847;28;20033;-78
2022/01/07 07:23:14;;;;;;;14.43;7.35;;;2.50;99.90;;;;;;5074283;28;20048;-78
2022/01/07 07:25:40;;;;;;;12.32;6.60;;;2.50;99.90;;;;;;5074432;28;20044;-78
2022/01/07 07:28:06;;;;;;;13.65;7.05;;;2.60;99.90;;;;;;5074227;28;20507;-77
2022/01/07 07:30:38;;;;;;;16.20;6.97;;;3.40;99.90;;;;;;5074220;28;20044;-77
2022/01/07 07:38:33;;;;;;;13.68;6.18;;;2.50;99.90;;;;;;5062322;28;20065;-79
2022/01/07 07:40:59;;;;;;;13.70;7.03;;;2.50;99.90;;;;;;5054018;28;20049;-78
2022/01/07 07:43:25;;;;;;;15.15;7.32;;;2.60;99.90;;;;;;5036320;28;20452;-78
2022/01/07 07:45:51;;;;;;;14.30;7.22;;;3.60;99.90;;;;;;5054111;28;20048;-78
2022/01/07 07:48:18;;;;;;;12.95;7.10;;;2.60;99.90;;;;;;5053351;28;20072;-78
2022/01/07 07:50:44;;;;;;;13.75;7.57;;;2.60;99.90;;;;;;5053783;28;20052;-78
2022/01/07 07:53:10;;;;;;;13.27;7.03;;;2.60;99.90;;;;;;5053687;28;20041;-79
2022/01/07 07:55:35;;;;;;;15.50;7.20;;;2.60;99.90;;;;;;5053709;28;20033;-79
2022/01/07 07:58:01;;;;;;;13.80;7.68;;;2.60;99.90;;;;;;5052550;28;20478;-78
2022/01/07 08:00:27;;;;;;;15.85;8.50;;;2.60;99.90;;;;;;5035095;28;20041;-78
2022/01/07 08:02:52;;;;;;;14.75;7.22;;;2.70;99.90;;;;;;5053650;28;20083;-78
2022/01/07 08:05:18;;;;;;;16.63;8.30;;;2.70;99.90;;;;;;5053798;28;20040;-77
2022/01/07 08:07:44;;;;;;;15.02;7.70;;;2.70;99.90;;;;;;5052304;28;20095;-78
2022/01/07 08:10:09;;;;;;;17.92;8.65;;;2.70;99.90;;;;;;5053285;28;20402;-75
2022/01/07 08:13:24;;;;;;;14.27;8.10;;;2.70;99.90;;;;;;5053416;28;20084;-79
2022/01/07 08:18:08;;;;;;;18.85;8.15;;;2.80;99.90;;;;;;5052329;28;20041;-79
2022/01/07 08:20:33;;;;;;;15.70;8.45;;;2.80;99.90;;;;;;5051897;28;20104;-78
2022/01/07 08:23:00;;;;;;;16.30;9.05;;;2.80;99.90;;;;;;5053076;28;20037;-78
2022/01/07 08:25:26;;;;;;;17.63;8.88;;;3.40;99.90;;;;;;5051869;28;20044;-78
2022/01/07 08:27:51;;;;;;;17.63;8.85;;;2.80;99.90;;;;;;5053270;28;20384;-80
2022/01/07 08:30:24;;;;;;;16.85;9.15;;;3.10;99.90;;;;;;5053066;28;20128;-79
2022/01/07 08:35:38;;;;;;;16.15;7.88;;;2.80;99.90;;;;;;5052939;28;20045;-78
2022/01/07 08:38:07;;;;;;;19.15;8.85;;;2.90;99.90;;;;;;5051438;28;20061;-77
2022/01/07 08:40:33;;;;;;;15.25;8.57;;;3.50;99.90;;;;;;5052801;28;20091;-79
2022/01/07 08:42:59;;;;;;;20.77;9.32;;;3.10;99.90;;;;;;5052876;28;20043;-78
2022/01/07 08:45:25;;;;;;;18.92;9.52;;;2.90;99.90;;;;;;5053047;28;20048;-78
2022/01/07 08:47:51;;;;;;;20.85;9.18;;;2.90;99.90;;;;;;5053010;28;20069;-78
2022/01/07 08:50:17;;;;;;;16.90;9.63;;;2.90;99.90;;;;;;5051522;28;20076;-79
2022/01/07 08:52:42;;;;;;;20.55;9.57;;;3.00;99.90;;;;;;5052764;28;20573;-78
2022/01/07 08:55:08;;;;;;;17.63;10.02;;;3.80;99.90;;;;;;5051569;28;20127;-77
2022/01/07 08:57:34;;;;;;;18.90;9.70;;;3.10;99.90;;;;;;5052888;28;20040;-78
2022/01/07 09:00:00;;;;;;;19.92;11.05;;;3.10;99.90;;;;;;5052544;28;20087;-79
2022/01/07 09:02:26;;;;;;;17.58;10.50;;;3.10;99.90;;;;;;5052714;28;20076;-78
2022/01/07 09:04:51;;;;;;;21.48;10.90;;;3.20;99.90;;;;;;5052461;28;20118;-79
2022/01/07 09:07:17;;;;;;;26.42;11.57;;;3.20;99.90;;;;;;5051216;28;20084;-79
2022/01/07 09:09:42;;;;;;;19.67;11.35;;;3.20;99.90;;;;;;5052672;28;20481;-79
2022/01/07 09:12:09;;;;;;;21.25;10.70;;;3.30;99.90;;;;;;5052710;28;20398;-79
2022/01/07 09:14:36;;;;;;;21.55;10.30;;;3.30;99.90;;;;;;5052414;28;20041;-78
2022/01/07 09:17:02;;;;;;;22.52;10.93;;;3.30;99.90;;;;;;5051137;28;20045;-79
2022/01/07 09:19:28;;;;;;;22.98;11.25;;;3.30;99.90;;;;;;5052262;28;20482;-79
2022/01/07 09:21:56;;;;;;;25.27;12.20;;;3.40;99.90;;;;;;5052496;28;20048;-79
2022/01/07 09:24:22;;;;;;;19.65;10.95;;;3.40;99.90;;;;;;5052506;28;20037;-79
2022/01/07 09:26:48;;;;;;;27.88;11.85;;;3.40;99.90;;;;;;5052437;28;20037;-80
2022/01/07 09:29:14;;;;;;;25.75;12.00;;;3.40;99.90;;;;;;5050979;28;20573;-78
2022/01/07 09:31:40;;;;;;;25.63;12.70;;;3.80;99.90;;;;;;5052494;28;20048;-79
2022/01/07 09:34:06;;;;;;;23.25;12.48;;;3.50;99.90;;;;;;5056438;28;20040;-79
2022/01/07 09:36:33;;;;;;;24.23;12.80;;;3.60;99.90;;;;;;5056392;28;20442;-80
2022/01/07 09:38:58;;;;;;;23.90;12.77;;;3.80;99.90;;;;;;5071045;28;20048;-79
2022/01/07 09:41:25;;;;;;;24.00;11.73;;;3.80;99.90;;;;;;5076532;28;20503;-79
2022/01/07 09:43:50;;;;;;;26.25;12.55;;;3.80;99.90;;;;;;5076631;28;20079;-79
2022/01/07 09:46:20;;;;;;;25.92;13.77;;;3.80;99.90;;;;;;5076389;28;20076;-79
2022/01/07 09:48:46;;;;;;;25.30;12.60;;;3.90;99.90;;;;;;5076312;28;20044;-80
2022/01/07 09:51:14;;;;;;;21.73;11.48;;;3.90;99.90;;;;;;5075901;28;20049;-79
2022/01/07 09:53:40;;;;;;;28.42;12.57;;;3.90;99.90;;;;;;5075950;28;20044;-80
2022/01/07 09:56:06;;;;;;;23.33;12.20;;;3.90;99.90;;;;;;5076440;28;20178;-84
2022/01/07 09:58:33;;;;;;;22.13;12.20;;;3.90;99.90;;;;;;5078704;28;20525;-84
2022/01/07 10:01:05;;;;;;;23.45;11.65;;;3.90;99.90;;;;;;5078635;28;20046;-82
2022/01/07 10:03:40;;;;;;;25.50;12.85;;;4.00;99.90;;;;;;5076430;28;20044;-84
2022/01/07 10:06:38;;;;;;;23.67;12.25;;;4.00;99.90;;;;;;5076470;28;20037;-83
2022/01/07 10:09:16;;;;;;;23.55;12.35;;;4.10;99.90;;;;;;5016126;28;20189;-83
2022/01/07 10:11:42;;;;;;;27.02;12.75;;;4.10;99.90;;;;;;5015156;28;20057;-83
2022/01/07 10:14:22;;;;;;;24.27;12.38;;;4.10;99.90;;;;;;5000677;28;20574;-81
2022/01/07 10:16:53;;;;;;;25.67;12.15;;;4.20;99.90;;;;;;5016839;28;20129;-81
2022/01/07 10:19:49;;;;;;;27.17;13.07;;;4.20;99.90;;;;;;5015151;28;20527;-79
2022/01/07 10:22:16;;;;;;;23.48;12.45;;;4.20;99.90;;;;;;4936270;28;20309;-81
2022/01/07 10:25:03;;;;;;;25.02;12.88;;;4.20;99.90;;;;;;4936342;29;20091;-79
2022/01/07 10:27:39;;;;;;;26.02;12.98;;;4.20;99.90;;;;;;4936152;29;20523;-78
2022/01/07 10:30:15;;;;;;;23.52;12.10;;;4.20;99.90;;;;;;4936013;29;20059;-76
2022/01/07 10:32:41;;;;;;;28.40;13.55;;;4.20;99.90;;;;;;4936132;29;20059;-76
2022/01/07 10:35:14;;;;;;;28.85;13.50;;;4.20;99.90;;;;;;4935927;29;20414;-78
2022/01/07 10:37:57;;;;;;;27.17;13.80;;;4.20;99.90;;;;;;4935838;29;20063;-78
2022/01/07 10:40:30;;;;;;;26.20;13.93;;;4.20;99.90;;;;;;4920546;29;20499;-78
2022/01/07 10:43:16;;;;;;;33.72;13.20;;;4.20;99.90;;;;;;4935788;29;20043;-78
2022/01/07 10:45:53;;;;;;;26.65;13.23;;;4.20;99.90;;;;;;4989434;28;20432;-75
2022/01/07 10:48:22;;;;;;;27.98;13.10;;;4.20;99.90;;;;;;4993669;28;20043;-77
2022/01/07 10:50:50;;;;;;;28.92;14.52;;;4.20;99.90;;;;;;4977411;28;20050;-79
2022/01/07 10:53:20;;;;;;;27.65;14.63;;;4.30;99.90;;;;;;4993680;28;20062;-78
2022/01/07 10:56:16;;;;;;;23.55;12.38;;;4.30;99.90;;;;;;4994458;28;20038;-84
2022/01/07 10:58:49;;;;;;;23.75;13.10;;;4.30;99.90;;;;;;5037261;28;20052;-78
2022/01/07 11:01:43;;;;;;;24.20;12.57;;;4.40;99.90;;;;;;5075008;28;20676;-82
2022/01/07 11:04:15;;;;;;;23.83;12.50;;;4.50;99.90;;;;;;5075683;28;20424;-84
2022/01/07 11:06:41;;;;;;;23.33;11.55;;;4.50;99.90;;;;;;5075220;28;20041;-80
2022/01/07 11:09:09;;;;;;;18.95;10.45;;;4.50;99.90;;;;;;5075287;28;20098;-83
2022/01/07 11:11:44;;;;;;;18.08;9.52;;;4.40;99.90;;;;;;5075126;28;20044;-82
2022/01/07 11:14:15;;;;;;;19.77;9.98;;;4.40;99.90;;;;;;5057490;28;20047;-83
2022/01/07 11:16:40;;;;;;;16.75;9.15;;;4.30;99.90;;;;;;5074964;28;20106;-83
2022/01/07 11:19:08;;;;;;;22.27;9.90;;;4.30;99.90;;;;;;5074883;28;20444;-84
2022/01/07 11:21:35;;;;;;;23.13;10.05;;;4.80;99.90;;;;;;5074685;28;20091;-85
2022/01/07 11:24:34;;;;;;;29.08;11.70;;;4.30;99.90;;;;;;5075039;28;20044;-84
2022/01/07 11:27:07;;;;;;;23.40;11.35;;;4.30;99.90;;;;;;5074787;28;20056;-83
2022/01/07 11:30:03;;;;;;;20.67;11.50;;;4.40;99.90;;;;;;5074267;28;20041;-84
2022/01/07 11:32:38;;;;;;;26.88;11.50;;;4.60;99.90;;;;;;5012600;28;20153;-78
2022/01/07 11:35:19;;;;;;;21.10;10.18;;;4.70;99.90;;;;;;5013014;28;20504;-82
2022/01/07 11:37:48;;;;;;;18.88;9.95;;;4.80;99.90;;;;;;5012798;28;20090;-82
2022/01/07 11:40:31;;;;;;;21.38;9.85;;;4.80;99.90;;;;;;5029148;28;20077;-81
2022/01/07 11:43:17;;;;;;;18.73;8.05;;;4.80;99.90;;;;;;5022292;28;20057;-77
2022/01/07 11:45:43;;;;;;;16.10;7.70;;;4.90;99.90;;;;;;5027388;28;20068;-82
2022/01/07 11:48:10;;;;;;;17.60;7.40;;;5.00;99.90;;;;;;5023453;28;20046;-81
2022/01/07 11:50:54;;;;;;;13.40;6.72;;;5.00;99.90;;;;;;4996718;28;20050;-85
2022/01/07 11:53:24;;;;;;;15.45;6.40;;;5.00;99.90;;;;;;5013164;28;20133;-79
2022/01/07 11:55:50;;;;;;;13.05;5.60;;;5.20;99.90;;;;;;4995952;28;20447;-84
2022/01/07 11:58:16;;;;;;;13.13;5.93;;;5.40;99.90;;;;;;5012098;28;20060;-83
2022/01/07 12:00:52;;;;;;;12.65;5.25;;;5.40;99.90;;;;;;5012259;28;20049;-84
2022/01/07 12:03:29;;;;;;;11.35;5.07;;;5.40;99.90;;;;;;5011887;28;20065;-84
2022/01/07 12:05:55;;;;;;;14.07;5.70;;;5.30;99.90;;;;;;5012187;28;20045;-80
2022/01/07 12:08:37;;;;;;;12.38;5.07;;;5.20;99.90;;;;;;5015565;28;20042;-82
2022/01/07 12:11:10;;;;;;;13.18;6.25;;;5.10;99.90;;;;;;5073450;28;20040;-84
2022/01/07 12:13:38;;;;;;;14.55;6.75;;;5.40;99.90;;;;;;5073354;28;20379;-83
2022/01/07 12:16:06;;;;;;;14.85;7.18;;;5.70;99.90;;;;;;5073389;28;20048;-82
2022/01/07 12:18:33;;;;;;;13.48;6.97;;;5.00;99.90;;;;;;5073892;28;20080;-82
2022/01/07 12:20:59;;;;;;;17.42;8.02;;;4.90;99.90;;;;;;5073612;28;20071;-84
2022/01/07 12:23:24;;;;;;;22.52;7.55;;;4.90;99.90;;;;;;5055197;28;20518;-83
2022/01/07 12:25:53;;;;;;;19.77;8.63;;;4.80;99.90;;;;;;5055688;28;20052;-83
2022/01/07 12:28:19;;;;;;;17.17;8.60;;;4.80;99.90;;;;;;5073653;28;20119;-82
2022/01/07 12:30:46;;;;;;;17.98;7.63;;;4.80;99.90;;;;;;5074150;28;20052;-79
2022/01/07 12:33:12;;;;;;;16.30;8.60;;;4.80;99.90;;;;;;5074149;28;20590;-84
2022/01/07 12:35:39;;;;;;;17.45;9.05;;;4.70;99.90;;;;;;5073052;28;20490;-82
2022/01/07 12:38:18;;;;;;;19.83;8.70;;;4.70;99.90;;;;;;5074247;28;20102;-83
2022/01/07 12:40:55;;;;;;;20.52;8.77;;;4.60;99.90;;;;;;5054955;28;20048;-81
2022/01/07 12:43:22;;;;;;;21.77;7.35;;;4.60;99.90;;;;;;5072935;28;20044;-82
2022/01/07 12:45:59;;;;;;;15.52;8.43;;;4.60;99.90;;;;;;5072975;28;20041;-81
2022/01/07 12:48:41;;;;;;;18.40;7.63;;;4.60;99.90;;;;;;5073178;28;20044;-81
2022/01/07 12:51:07;;;;;;;20.07;8.57;;;4.60;99.90;;;;;;5054791;28;20494;-80
2022/01/07 12:53:34;;;;;;;16.65;7.97;;;4.70;99.90;;;;;;5055012;28;20311;-81
2022/01/07 12:56:22;;;;;;;16.15;7.63;;;4.80;99.90;;;;;;5054359;28;20052;-79
2022/01/07 12:58:48;;;;;;;18.33;7.75;;;4.90;99.90;;;;;;5072872;28;20490;-79
2022/01/07 13:01:25;;;;;;;14.82;7.60;;;4.90;99.90;;;;;;5073142;28;20052;-77